sensor_id;sensor_type;location;lat;lon;timestamp;temperature;humidity
21489;DHT22;10906;45.194;5.684;2023-12-14T06:00:24;7.50;99.90
21489;DHT22;10906;45.194;5.684;2023-12-14T06:03:08;7.40;99.90
21489;DHT22;10906;45.194;5.684;2023-12-14T06:05:53;7.40;99.90
21489;DHT22;10906;45.194;5.684;2023-12-14T06:08:37;7.40;99.90
21489;DHT22;10906;45.194;5.684;2023-12-14T06:11:21;7.40;99.90
21489;DHT22;10906;45.194;5.684;2023-12-14T06:14:05;7.40;99.90
21489;DHT22;10906;45.194;5.684;2023-12-14T06:16:50;7.40;99.90
21489;DHT22;10906;45.194;5.684;2023-12-14T06:19:34;7.40;99.90
21489;DHT22;10906;45.194;5.684;2023-12-14T06:22:18;7.40;99.90
21489;DHT22;10906;45.194;5.684;2023-12-14T06:25:03;7.40;99.90
21489;DHT22;10906;45.194;5.684;2023-12-14T06:27:47;7.40;99.90
21489;DHT22;10906;45.194;5.684;2023-12-14T06:30:32;7.30;99.90
21489;DHT22;10906;45.194;5.684;2023-12-14T06:33:16;7.30;99.90
21489;DHT22;10906;45.194;5.684;2023-12-14T06:36:02;7.40;99.90
21489;DHT22;10906;45.194;5.684;2023-12-14T06:38:47;7.40;99.90
21489;DHT22;10906;45.194;5.684;2023-12-14T06:41:31;7.30;99.90
21489;DHT22;10906;45.194;5.684;2023-12-14T06:44:15;7.40;99.90
21489;DHT22;10906;45.194;5.684;2023-12-14T06:47:01;7.30;99.90
21489;DHT22;10906;45.194;5.684;2023-12-14T06:49:45;7.30;99.90
21489;DHT22;10906;45.194;5.684;2023-12-14T06:52:29;7.30;99.90
21489;DHT22;10906;45.194;5.684;2023-12-14T06:55:14;7.30;99.90
21489;DHT22;10906;45.194;5.684;2023-12-14T06:58:01;7.30;99.90
21489;DHT22;10906;45.194;5.684;2023-12-14T07:00:45;7.30;99.90
21489;DHT22;10906;45.194;5.684;2023-12-14T07:03:29;7.30;99.90
21489;DHT22;10906;45.194;5.684;2023-12-14T07:06:14;7.30;99.90
21489;DHT22;10906;45.194;5.684;2023-12-14T07:08:59;7.30;99.90
21489;DHT22;10906;45.194;5.684;2023-12-14T07:11:43;7.30;99.90
21489;DHT22;10906;45.194;5.684;2023-12-14T07:14:27;7.30;99.90
21489;DHT22;10906;45.194;5.684;2023-12-14T07:17:15;7.30;99.90
21489;DHT22;10906;45.194;5.684;2023-12-14T07:20:36;7.50;99.90
21489;DHT22;10906;45.194;5.684;2023-12-14T07:23:20;7.30;99.90
21489;DHT22;10906;45.194;5.684;2023-12-14T07:26:04;7.30;99.90
21489;DHT22;10906;45.194;5.684;2023-12-14T07:28:51;7.30;99.90
21489;DHT22;10906;45.194;5.684;2023-12-14T07:31:38;10.10;99.90
21489;DHT22;10906;45.194;5.684;2023-12-14T07:34:22;7.30;99.90
21489;DHT22;10906;45.194;5.684;2023-12-14T07:37:08;9.60;99.90
21489;DHT22;10906;45.194;5.684;2023-12-14T07:39:53;7.30;99.90
21489;DHT22;10906;45.194;5.684;2023-12-14T07:42:37;7.30;99.90
21489;DHT22;10906;45.194;5.684;2023-12-14T07:45:21;7.30;99.90
21489;DHT22;10906;45.194;5.684;2023-12-14T07:48:05;7.30;99.90
21489;DHT22;10906;45.194;5.684;2023-12-14T07:50:49;7.30;99.90
21489;DHT22;10906;45.194;5.684;2023-12-14T07:53:33;7.20;99.90
21489;DHT22;10906;45.194;5.684;2023-12-14T07:56:18;7.20;99.90
21489;DHT22;10906;45.194;5.684;2023-12-14T07:59:02;7.10;99.90
21489;DHT22;10906;45.194;5.684;2023-12-14T08:01:50;7.10;99.90
21489;DHT22;10906;45.194;5.684;2023-12-14T08:04:34;7.10;99.90
21489;DHT22;10906;45.194;5.684;2023-12-14T08:07:18;7.20;99.90
21489;DHT22;10906;45.194;5.684;2023-12-14T08:10:02;7.20;99.90
21489;DHT22;10906;45.194;5.684;2023-12-14T08:12:47;7.20;99.90
21489;DHT22;10906;45.194;5.684;2023-12-14T08:15:31;7.20;99.90
21489;DHT22;10906;45.194;5.684;2023-12-14T08:18:15;7.20;99.90
21489;DHT22;10906;45.194;5.684;2023-12-14T08:21:00;7.20;99.90
21489;DHT22;10906;45.194;5.684;2023-12-14T08:23:44;7.20;99.90
21489;DHT22;10906;45.194;5.684;2023-12-14T08:26:29;7.20;99.90
21489;DHT22;10906;45.194;5.684;2023-12-14T08:29:13;7.20;99.90
21489;DHT22;10906;45.194;5.684;2023-12-14T08:31:57;7.20;99.90
21489;DHT22;10906;45.194;5.684;2023-12-14T08:34:43;7.20;99.90
21489;DHT22;10906;45.194;5.684;2023-12-14T08:37:27;7.30;99.90
21489;DHT22;10906;45.194;5.684;2023-12-14T08:40:11;7.30;99.90
21489;DHT22;10906;45.194;5.684;2023-12-14T08:42:55;7.30;99.90
21489;DHT22;10906;45.194;5.684;2023-12-14T08:45:41;7.20;99.90
21489;DHT22;10906;45.194;5.684;2023-12-14T08:48:26;7.20;99.90
21489;DHT22;10906;45.194;5.684;2023-12-14T08:51:10;7.20;99.90
21489;DHT22;10906;45.194;5.684;2023-12-14T08:53:55;7.30;99.90
21489;DHT22;10906;45.194;5.684;2023-12-14T08:56:39;7.30;99.90
21489;DHT22;10906;45.194;5.684;2023-12-14T08:59:24;7.30;99.90
21489;DHT22;10906;45.194;5.684;2023-12-14T09:02:08;7.20;99.90
21489;DHT22;10906;45.194;5.684;2023-12-14T09:04:53;7.20;99.90
21489;DHT22;10906;45.194;5.684;2023-12-14T09:07:37;7.20;99.90
21489;DHT22;10906;45.194;5.684;2023-12-14T09:10:24;7.20;99.90
21489;DHT22;10906;45.194;5.684;2023-12-14T09:13:09;7.00;99.90
21489;DHT22;10906;45.194;5.684;2023-12-14T09:15:53;7.20;99.90
21489;DHT22;10906;45.194;5.684;2023-12-14T09:18:38;7.20;99.90
21489;DHT22;10906;45.194;5.684;2023-12-14T09:21:22;7.20;99.90
21489;DHT22;10906;45.194;5.684;2023-12-14T09:24:06;7.20;99.90
21489;DHT22;10906;45.194;5.684;2023-12-14T09:26:50;7.30;99.90
21489;DHT22;10906;45.194;5.684;2023-12-14T09:29:34;7.40;99.90
21489;DHT22;10906;45.194;5.684;2023-12-14T09:32:19;7.40;99.90
21489;DHT22;10906;45.194;5.684;2023-12-14T09:35:03;7.40;99.90
21489;DHT22;10906;45.194;5.684;2023-12-14T09:37:47;7.40;99.90
21489;DHT22;10906;45.194;5.684;2023-12-14T09:40:31;7.40;99.90
21489;DHT22;10906;45.194;5.684;2023-12-14T09:43:15;7.50;99.90
21489;DHT22;10906;45.194;5.684;2023-12-14T09:46:00;7.60;99.90
21489;DHT22;10906;45.194;5.684;2023-12-14T09:48:45;7.60;99.90
21489;DHT22;10906;45.194;5.684;2023-12-14T09:51:29;7.60;99.90
21489;DHT22;10906;45.194;5.684;2023-12-14T09:54:14;7.60;99.90
21489;DHT22;10906;45.194;5.684;2023-12-14T09:56:58;7.60;99.90
21489;DHT22;10906;45.194;5.684;2023-12-14T09:59:49;7.70;99.90
21489;DHT22;10906;45.194;5.684;2023-12-14T10:02:34;7.80;99.90
21489;DHT22;10906;45.194;5.684;2023-12-14T10:05:18;7.90;99.90
21489;DHT22;10906;45.194;5.684;2023-12-14T10:08:02;7.90;99.90
21489;DHT22;10906;45.194;5.684;2023-12-14T10:10:48;7.90;99.90
21489;DHT22;10906;45.194;5.684;2023-12-14T10:13:37;7.90;99.90
21489;DHT22;10906;45.194;5.684;2023-12-14T10:19:13;7.90;99.90
21489;DHT22;10906;45.194;5.684;2023-12-14T10:21:57;7.90;99.90
21489;DHT22;10906;45.194;5.684;2023-12-14T10:24:42;7.80;99.90
21489;DHT22;10906;45.194;5.684;2023-12-14T10:27:27;7.80;99.90
21489;DHT22;10906;45.194;5.684;2023-12-14T10:30:11;7.80;99.90
21489;DHT22;10906;45.194;5.684;2023-12-14T10:32:57;7.80;99.90
21489;DHT22;10906;45.194;5.684;2023-12-14T10:35:41;7.80;99.90
21489;DHT22;10906;45.194;5.684;2023-12-14T10:38:27;7.90;99.90
21489;DHT22;10906;45.194;5.684;2023-12-14T10:41:13;7.80;99.90
21489;DHT22;10906;45.194;5.684;2023-12-14T10:43:57;7.90;99.90
21489;DHT22;10906;45.194;5.684;2023-12-14T10:46:43;7.90;99.90
21489;DHT22;10906;45.194;5.684;2023-12-14T10:49:29;8.00;99.90
21489;DHT22;10906;45.194;5.684;2023-12-14T10:52:14;7.90;99.90
21489;DHT22;10906;45.194;5.684;2023-12-14T10:55:00;8.00;99.90
21489;DHT22;10906;45.194;5.684;2023-12-14T10:57:46;8.10;99.90
21489;DHT22;10906;45.194;5.684;2023-12-14T11:00:33;8.00;99.90
21489;DHT22;10906;45.194;5.684;2023-12-14T11:03:17;8.10;99.90
21489;DHT22;10906;45.194;5.684;2023-12-14T11:06:01;8.20;99.90
21489;DHT22;10906;45.194;5.684;2023-12-14T11:08:46;8.40;99.90
21489;DHT22;10906;45.194;5.684;2023-12-14T11:11:30;8.40;99.90
21489;DHT22;10906;45.194;5.684;2023-12-14T11:14:14;8.40;99.90
21489;DHT22;10906;45.194;5.684;2023-12-14T11:17:05;8.30;99.90
21489;DHT22;10906;45.194;5.684;2023-12-14T11:19:50;8.40;99.90
21489;DHT22;10906;45.194;5.684;2023-12-14T11:22:38;8.50;99.90
21489;DHT22;10906;45.194;5.684;2023-12-14T11:25:29;8.60;99.90
21489;DHT22;10906;45.194;5.684;2023-12-14T11:28:13;8.60;99.90
21489;DHT22;10906;45.194;5.684;2023-12-14T11:30:57;8.60;99.90
21489;DHT22;10906;45.194;5.684;2023-12-14T11:33:42;8.70;99.90
21489;DHT22;10906;45.194;5.684;2023-12-14T11:36:28;8.70;99.90
21489;DHT22;10906;45.194;5.684;2023-12-14T11:39:12;8.70;99.90
21489;DHT22;10906;45.194;5.684;2023-12-14T11:42:00;8.70;99.90
21489;DHT22;10906;45.194;5.684;2023-12-14T11:44:45;8.90;99.90
21489;DHT22;10906;45.194;5.684;2023-12-14T11:47:29;9.00;99.90
21489;DHT22;10906;45.194;5.684;2023-12-14T11:50:13;9.20;99.90
21489;DHT22;10906;45.194;5.684;2023-12-14T11:52:59;9.30;99.90
21489;DHT22;10906;45.194;5.684;2023-12-14T11:55:43;9.70;99.90
21489;DHT22;10906;45.194;5.684;2023-12-14T11:58:29;10.00;99.90
21489;DHT22;10906;45.194;5.684;2023-12-14T12:01:15;10.10;99.90
21489;DHT22;10906;45.194;5.684;2023-12-14T12:04:09;10.30;99.90
21489;DHT22;10906;45.194;5.684;2023-12-14T12:07:03;10.50;99.90
21489;DHT22;10906;45.194;5.684;2023-12-14T12:09:48;10.50;99.90
21489;DHT22;10906;45.194;5.684;2023-12-14T12:12:33;10.50;99.90
21489;DHT22;10906;45.194;5.684;2023-12-14T12:15:18;10.50;99.90
21489;DHT22;10906;45.194;5.684;2023-12-14T12:18:06;10.50;99.90
21489;DHT22;10906;45.194;5.684;2023-12-14T12:20:50;10.50;99.90
21489;DHT22;10906;45.194;5.684;2023-12-14T12:23:36;10.70;99.90
21489;DHT22;10906;45.194;5.684;2023-12-14T12:26:20;10.90;99.90
21489;DHT22;10906;45.194;5.684;2023-12-14T12:29:04;10.90;99.90
21489;DHT22;10906;45.194;5.684;2023-12-14T12:31:50;11.00;99.90
21489;DHT22;10906;45.194;5.684;2023-12-14T12:34:34;11.20;99.90
21489;DHT22;10906;45.194;5.684;2023-12-14T12:37:18;11.30;99.90
21489;DHT22;10906;45.194;5.684;2023-12-14T12:40:02;11.30;99.90
21489;DHT22;10906;45.194;5.684;2023-12-14T12:42:48;11.20;99.90
21489;DHT22;10906;45.194;5.684;2023-12-14T12:45:33;11.20;99.90
21489;DHT22;10906;45.194;5.684;2023-12-14T12:48:19;11.30;99.90
21489;DHT22;10906;45.194;5.684;2023-12-14T12:51:03;11.20;99.90
21489;DHT22;10906;45.194;5.684;2023-12-14T12:53:47;11.10;99.90
21489;DHT22;10906;45.194;5.684;2023-12-14T12:56:31;11.00;99.90
21489;DHT22;10906;45.194;5.684;2023-12-14T12:59:15;10.90;99.90
21489;DHT22;10906;45.194;5.684;2023-12-14T13:02:00;10.80;99.90
21489;DHT22;10906;45.194;5.684;2023-12-14T13:04:46;10.70;99.90
21489;DHT22;10906;45.194;5.684;2023-12-14T13:07:30;10.80;99.90
21489;DHT22;10906;45.194;5.684;2023-12-14T13:10:15;10.80;99.90
21489;DHT22;10906;45.194;5.684;2023-12-14T13:13:01;10.90;99.90
21489;DHT22;10906;45.194;5.684;2023-12-14T13:15:45;11.00;99.90
21489;DHT22;10906;45.194;5.684;2023-12-14T13:18:29;11.00;99.90
21489;DHT22;10906;45.194;5.684;2023-12-14T13:21:13;11.00;99.90
21489;DHT22;10906;45.194;5.684;2023-12-14T13:23:58;11.00;99.90
21489;DHT22;10906;45.194;5.684;2023-12-14T13:26:42;11.00;99.90
21489;DHT22;10906;45.194;5.684;2023-12-14T13:29:26;11.00;99.90
21489;DHT22;10906;45.194;5.684;2023-12-14T13:32:10;11.00;99.90
21489;DHT22;10906;45.194;5.684;2023-12-14T13:34:55;10.80;99.90
21489;DHT22;10906;45.194;5.684;2023-12-14T13:37:39;10.70;99.90
21489;DHT22;10906;45.194;5.684;2023-12-14T13:40:23;10.60;99.90
21489;DHT22;10906;45.194;5.684;2023-12-14T13:43:07;10.50;99.90
21489;DHT22;10906;45.194;5.684;2023-12-14T13:45:53;10.40;99.90
21489;DHT22;10906;45.194;5.684;2023-12-14T13:48:41;10.30;99.90
21489;DHT22;10906;45.194;5.684;2023-12-14T13:51:25;10.10;99.90
21489;DHT22;10906;45.194;5.684;2023-12-14T13:54:09;10.00;99.90
21489;DHT22;10906;45.194;5.684;2023-12-14T13:56:54;9.90;99.90
21489;DHT22;10906;45.194;5.684;2023-12-14T13:59:38;9.90;99.90
21489;DHT22;10906;45.194;5.684;2023-12-14T14:02:22;9.80;99.90
21489;DHT22;10906;45.194;5.684;2023-12-14T14:05:09;9.80;99.90
21489;DHT22;10906;45.194;5.684;2023-12-14T14:07:53;9.80;99.90
21489;DHT22;10906;45.194;5.684;2023-12-14T14:10:37;9.80;99.90
21489;DHT22;10906;45.194;5.684;2023-12-14T14:13:22;9.80;99.90
21489;DHT22;10906;45.194;5.684;2023-12-14T14:16:07;9.80;99.90
21489;DHT22;10906;45.194;5.684;2023-12-14T14:18:51;9.80;99.90
21489;DHT22;10906;45.194;5.684;2023-12-14T14:21:35;9.80;99.90
21489;DHT22;10906;45.194;5.684;2023-12-14T14:24:20;9.80;99.90
21489;DHT22;10906;45.194;5.684;2023-12-14T14:27:04;9.70;99.90
21489;DHT22;10906;45.194;5.684;2023-12-14T14:29:49;9.80;99.90
21489;DHT22;10906;45.194;5.684;2023-12-14T14:32:33;9.70;99.90
21489;DHT22;10906;45.194;5.684;2023-12-14T14:35:19;9.60;99.90
21489;DHT22;10906;45.194;5.684;2023-12-14T14:38:04;9.50;99.90
21489;DHT22;10906;45.194;5.684;2023-12-14T14:40:48;9.50;99.90
21489;DHT22;10906;45.194;5.684;2023-12-14T14:43:33;9.30;99.90
21489;DHT22;10906;45.194;5.684;2023-12-14T14:46:20;9.30;99.90
21489;DHT22;10906;45.194;5.684;2023-12-14T14:49:04;9.20;99.90
21489;DHT22;10906;45.194;5.684;2023-12-14T14:51:49;9.20;99.90
21489;DHT22;10906;45.194;5.684;2023-12-14T14:54:36;9.20;99.90
21489;DHT22;10906;45.194;5.684;2023-12-14T14:57:20;9.20;99.90
21489;DHT22;10906;45.194;5.684;2023-12-14T15:00:04;9.30;99.90
21489;DHT22;10906;45.194;5.684;2023-12-14T15:02:50;9.20;99.90
21489;DHT22;10906;45.194;5.684;2023-12-14T15:05:34;9.10;99.90
21489;DHT22;10906;45.194;5.684;2023-12-14T15:08:18;9.00;99.90
21489;DHT22;10906;45.194;5.684;2023-12-14T15:11:02;9.00;99.90
21489;DHT22;10906;45.194;5.684;2023-12-14T15:13:47;8.90;99.90
21489;DHT22;10906;45.194;5.684;2023-12-14T15:16:31;8.90;99.90
21489;DHT22;10906;45.194;5.684;2023-12-14T15:19:16;8.90;99.90
21489;DHT22;10906;45.194;5.684;2023-12-14T15:22:03;8.90;99.90
21489;DHT22;10906;45.194;5.684;2023-12-14T15:24:47;8.80;99.90
21489;DHT22;10906;45.194;5.684;2023-12-14T15:27:32;8.80;99.90
21489;DHT22;10906;45.194;5.684;2023-12-14T15:30:17;8.70;99.90
21489;DHT22;10906;45.194;5.684;2023-12-14T15:33:01;8.20;99.90
21489;DHT22;10906;45.194;5.684;2023-12-14T15:35:46;8.70;99.90
21489;DHT22;10906;45.194;5.684;2023-12-14T15:38:30;8.60;99.90
21489;DHT22;10906;45.194;5.684;2023-12-14T15:41:15;8.60;99.90
21489;DHT22;10906;45.194;5.684;2023-12-14T15:44:02;8.50;99.90
21489;DHT22;10906;45.194;5.684;2023-12-14T15:46:46;7.90;99.90
21489;DHT22;10906;45.194;5.684;2023-12-14T15:49:30;8.50;99.90
21489;DHT22;10906;45.194;5.684;2023-12-14T15:52:14;8.40;99.90
21489;DHT22;10906;45.194;5.684;2023-12-14T15:54:59;8.40;99.90
21489;DHT22;10906;45.194;5.684;2023-12-14T15:57:46;8.40;99.90
21489;DHT22;10906;45.194;5.684;2023-12-14T16:00:30;8.40;99.90
21489;DHT22;10906;45.194;5.684;2023-12-14T16:03:17;8.40;99.90
21489;DHT22;10906;45.194;5.684;2023-12-14T16:06:04;8.40;99.90
21489;DHT22;10906;45.194;5.684;2023-12-14T16:08:48;8.30;99.90
21489;DHT22;10906;45.194;5.684;2023-12-14T16:11:32;8.30;99.90
21489;DHT22;10906;45.194;5.684;2023-12-14T16:14:20;8.10;99.90
21489;DHT22;10906;45.194;5.684;2023-12-14T16:17:04;8.30;99.90
21489;DHT22;10906;45.194;5.684;2023-12-14T16:19:48;8.30;99.90
21489;DHT22;10906;45.194;5.684;2023-12-14T16:22:32;8.30;99.90
21489;DHT22;10906;45.194;5.684;2023-12-14T16:25:21;8.30;99.90
21489;DHT22;10906;45.194;5.684;2023-12-14T16:28:05;8.30;99.90
21489;DHT22;10906;45.194;5.684;2023-12-14T16:30:49;8.30;99.90
21489;DHT22;10906;45.194;5.684;2023-12-14T16:33:36;8.30;99.90
21489;DHT22;10906;45.194;5.684;2023-12-14T16:36:21;8.30;99.90
21489;DHT22;10906;45.194;5.684;2023-12-14T16:39:05;8.30;99.90
21489;DHT22;10906;45.194;5.684;2023-12-14T16:41:50;8.30;99.90
21489;DHT22;10906;45.194;5.684;2023-12-14T16:44:35;8.40;99.90
21489;DHT22;10906;45.194;5.684;2023-12-14T16:47:28;8.40;99.90
21489;DHT22;10906;45.194;5.684;2023-12-14T16:50:13;8.40;99.90
21489;DHT22;10906;45.194;5.684;2023-12-14T16:52:59;8.30;99.90
21489;DHT22;10906;45.194;5.684;2023-12-14T16:55:44;8.30;99.90
21489;DHT22;10906;45.194;5.684;2023-12-14T16:58:28;8.30;99.90
21489;DHT22;10906;45.194;5.684;2023-12-14T17:01:14;8.30;99.90
21489;DHT22;10906;45.194;5.684;2023-12-14T17:04:01;8.30;99.90
21489;DHT22;10906;45.194;5.684;2023-12-14T17:06:45;8.30;99.90
21489;DHT22;10906;45.194;5.684;2023-12-14T17:09:29;8.30;99.90
21489;DHT22;10906;45.194;5.684;2023-12-14T17:12:14;8.30;99.90
21489;DHT22;10906;45.194;5.684;2023-12-14T17:14:58;8.30;99.90
21489;DHT22;10906;45.194;5.684;2023-12-14T17:17:42;8.30;99.90
21489;DHT22;10906;45.194;5.684;2023-12-14T17:20:26;8.30;99.90
21489;DHT22;10906;45.194;5.684;2023-12-14T17:23:11;8.20;99.90
21489;DHT22;10906;45.194;5.684;2023-12-14T17:25:55;8.20;99.90
21489;DHT22;10906;45.194;5.684;2023-12-14T17:28:46;8.30;99.90
21489;DHT22;10906;45.194;5.684;2023-12-14T17:31:31;8.20;99.90
21489;DHT22;10906;45.194;5.684;2023-12-14T17:34:15;8.20;99.90
21489;DHT22;10906;45.194;5.684;2023-12-14T17:36:59;8.20;99.90
21489;DHT22;10906;45.194;5.684;2023-12-14T17:39:43;8.20;99.90
21489;DHT22;10906;45.194;5.684;2023-12-14T17:42:28;8.20;99.90
21489;DHT22;10906;45.194;5.684;2023-12-14T17:45:13;8.20;99.90
21489;DHT22;10906;45.194;5.684;2023-12-14T17:47:57;8.20;99.90
21489;DHT22;10906;45.194;5.684;2023-12-14T17:50:41;8.10;99.90
21489;DHT22;10906;45.194;5.684;2023-12-14T17:53:26;8.20;99.90
21489;DHT22;10906;45.194;5.684;2023-12-14T17:56:10;8.20;99.90
21489;DHT22;10906;45.194;5.684;2023-12-14T17:58:54;8.10;99.90
21489;DHT22;10906;45.194;5.684;2023-12-14T18:01:42;8.10;99.90
21489;DHT22;10906;45.194;5.684;2023-12-14T18:04:26;8.10;99.90
21489;DHT22;10906;45.194;5.684;2023-12-14T18:07:10;8.10;99.90
21489;DHT22;10906;45.194;5.684;2023-12-14T18:09:54;8.10;99.90
21489;DHT22;10906;45.194;5.684;2023-12-14T18:12:39;8.10;99.90
21489;DHT22;10906;45.194;5.684;2023-12-14T18:15:23;8.10;99.90
21489;DHT22;10906;45.194;5.684;2023-12-14T18:18:07;8.10;99.90
21489;DHT22;10906;45.194;5.684;2023-12-14T18:20:51;8.10;99.90
21489;DHT22;10906;45.194;5.684;2023-12-14T18:23:36;8.10;99.90
21489;DHT22;10906;45.194;5.684;2023-12-14T18:26:20;8.00;99.90
21489;DHT22;10906;45.194;5.684;2023-12-14T18:29:04;8.10;99.90
21489;DHT22;10906;45.194;5.684;2023-12-14T18:31:48;8.10;99.90
21489;DHT22;10906;45.194;5.684;2023-12-14T18:34:34;8.10;99.90
21489;DHT22;10906;45.194;5.684;2023-12-14T18:37:18;8.10;99.90
21489;DHT22;10906;45.194;5.684;2023-12-14T18:40:03;8.10;99.90
21489;DHT22;10906;45.194;5.684;2023-12-14T18:42:47;8.10;99.90
21489;DHT22;10906;45.194;5.684;2023-12-14T18:45:32;8.10;99.90
21489;DHT22;10906;45.194;5.684;2023-12-14T18:48:16;8.10;99.90
21489;DHT22;10906;45.194;5.684;2023-12-14T18:51:00;8.10;99.90
21489;DHT22;10906;45.194;5.684;2023-12-14T18:53:45;8.10;99.90
21489;DHT22;10906;45.194;5.684;2023-12-14T18:56:29;8.10;99.90
21489;DHT22;10906;45.194;5.684;2023-12-14T18:59:14;8.10;99.90
21489;DHT22;10906;45.194;5.684;2023-12-14T19:01:58;8.10;99.90
21489;DHT22;10906;45.194;5.684;2023-12-14T19:04:43;8.10;99.90
21489;DHT22;10906;45.194;5.684;2023-12-14T19:07:29;8.10;99.90
21489;DHT22;10906;45.194;5.684;2023-12-14T19:10:13;8.10;99.90
21489;DHT22;10906;45.194;5.684;2023-12-14T19:12:57;8.10;99.90
21489;DHT22;10906;45.194;5.684;2023-12-14T19:15:42;8.10;99.90
21489;DHT22;10906;45.194;5.684;2023-12-14T19:18:26;8.10;99.90
21489;DHT22;10906;45.194;5.684;2023-12-14T19:21:16;8.10;99.90
21489;DHT22;10906;45.194;5.684;2023-12-14T19:24:01;8.10;99.90
21489;DHT22;10906;45.194;5.684;2023-12-14T19:26:45;8.10;99.90
21489;DHT22;10906;45.194;5.684;2023-12-14T19:29:29;8.00;99.90
21489;DHT22;10906;45.194;5.684;2023-12-14T19:32:16;8.00;99.90
21489;DHT22;10906;45.194;5.684;2023-12-14T19:35:01;8.00;99.90
21489;DHT22;10906;45.194;5.684;2023-12-14T19:37:45;8.00;99.90
21489;DHT22;10906;45.194;5.684;2023-12-14T19:40:31;8.00;99.90
21489;DHT22;10906;45.194;5.684;2023-12-14T19:43:16;8.00;99.90
21489;DHT22;10906;45.194;5.684;2023-12-14T19:46:00;8.00;99.90
21489;DHT22;10906;45.194;5.684;2023-12-14T19:48:44;8.00;99.90
21489;DHT22;10906;45.194;5.684;2023-12-14T19:51:29;8.00;99.90
21489;DHT22;10906;45.194;5.684;2023-12-14T19:54:14;8.00;99.90
21489;DHT22;10906;45.194;5.684;2023-12-14T19:56:58;8.00;99.90
21489;DHT22;10906;45.194;5.684;2023-12-14T19:59:43;7.90;99.90
21489;DHT22;10906;45.194;5.684;2023-12-14T20:02:29;7.90;99.90
21489;DHT22;10906;45.194;5.684;2023-12-14T20:05:13;7.90;99.90
21489;DHT22;10906;45.194;5.684;2023-12-14T20:07:57;7.90;99.90
21489;DHT22;10906;45.194;5.684;2023-12-14T20:10:45;7.90;99.90
21489;DHT22;10906;45.194;5.684;2023-12-14T20:13:29;7.90;99.90
21489;DHT22;10906;45.194;5.684;2023-12-14T20:16:13;7.90;99.90
21489;DHT22;10906;45.194;5.684;2023-12-14T20:18:57;7.90;99.90
21489;DHT22;10906;45.194;5.684;2023-12-14T20:21:42;7.90;99.90
21489;DHT22;10906;45.194;5.684;2023-12-14T20:24:26;7.90;99.90
21489;DHT22;10906;45.194;5.684;2023-12-14T20:27:11;7.90;99.90
21489;DHT22;10906;45.194;5.684;2023-12-14T20:29:55;7.80;99.90
21489;DHT22;10906;45.194;5.684;2023-12-14T20:32:39;7.80;99.90
21489;DHT22;10906;45.194;5.684;2023-12-14T20:35:24;7.80;99.90
21489;DHT22;10906;45.194;5.684;2023-12-14T20:38:08;7.80;99.90
21489;DHT22;10906;45.194;5.684;2023-12-14T20:40:52;7.80;99.90
21489;DHT22;10906;45.194;5.684;2023-12-14T20:43:37;7.80;99.90
21489;DHT22;10906;45.194;5.684;2023-12-14T20:46:22;7.80;99.90
21489;DHT22;10906;45.194;5.684;2023-12-14T20:49:07;7.80;99.90
21489;DHT22;10906;45.194;5.684;2023-12-14T20:51:51;7.80;99.90
21489;DHT22;10906;45.194;5.684;2023-12-14T20:54:35;7.80;99.90
21489;DHT22;10906;45.194;5.684;2023-12-14T20:57:19;7.80;99.90
21489;DHT22;10906;45.194;5.684;2023-12-14T21:00:03;7.80;99.90
21489;DHT22;10906;45.194;5.684;2023-12-14T21:02:49;7.80;99.90
21489;DHT22;10906;45.194;5.684;2023-12-14T21:05:33;7.80;99.90
21489;DHT22;10906;45.194;5.684;2023-12-14T21:08:18;7.80;99.90
21489;DHT22;10906;45.194;5.684;2023-12-14T21:11:02;7.90;99.90
21489;DHT22;10906;45.194;5.684;2023-12-14T21:13:46;7.90;99.90
21489;DHT22;10906;45.194;5.684;2023-12-14T21:16:30;7.80;99.90
21489;DHT22;10906;45.194;5.684;2023-12-14T21:19:14;7.90;99.90
21489;DHT22;10906;45.194;5.684;2023-12-14T21:21:59;7.90;99.90
21489;DHT22;10906;45.194;5.684;2023-12-14T21:24:43;7.90;99.90
21489;DHT22;10906;45.194;5.684;2023-12-14T21:27:28;7.90;99.90
21489;DHT22;10906;45.194;5.684;2023-12-14T21:30:31;7.90;99.90
21489;DHT22;10906;45.194;5.684;2023-12-14T21:33:15;7.90;99.90
21489;DHT22;10906;45.194;5.684;2023-12-14T21:36:00;7.90;99.90
21489;DHT22;10906;45.194;5.684;2023-12-14T21:38:44;7.90;99.90
21489;DHT22;10906;45.194;5.684;2023-12-14T21:41:28;7.90;99.90
21489;DHT22;10906;45.194;5.684;2023-12-14T21:44:12;8.00;99.90
21489;DHT22;10906;45.194;5.684;2023-12-14T21:46:57;8.00;99.90
21489;DHT22;10906;45.194;5.684;2023-12-14T21:49:41;8.00;99.90
21489;DHT22;10906;45.194;5.684;2023-12-14T21:52:25;8.00;99.90
21489;DHT22;10906;45.194;5.684;2023-12-14T21:55:10;8.00;99.90
21489;DHT22;10906;45.194;5.684;2023-12-14T21:57:54;8.00;99.90
21489;DHT22;10906;45.194;5.684;2023-12-14T22:00:38;8.00;99.90
21489;DHT22;10906;45.194;5.684;2023-12-14T22:03:22;8.00;99.90
21489;DHT22;10906;45.194;5.684;2023-12-14T22:06:10;8.00;99.90
21489;DHT22;10906;45.194;5.684;2023-12-14T22:08:57;7.90;99.90
21489;DHT22;10906;45.194;5.684;2023-12-14T22:11:41;7.90;99.90
21489;DHT22;10906;45.194;5.684;2023-12-14T22:14:25;7.90;99.90
21489;DHT22;10906;45.194;5.684;2023-12-14T22:17:09;7.90;99.90
21489;DHT22;10906;45.194;5.684;2023-12-14T22:19:54;7.90;99.90
21489;DHT22;10906;45.194;5.684;2023-12-14T22:22:38;7.90;99.90
21489;DHT22;10906;45.194;5.684;2023-12-14T22:25:22;7.90;99.90
21489;DHT22;10906;45.194;5.684;2023-12-14T22:28:06;7.90;99.90
21489;DHT22;10906;45.194;5.684;2023-12-14T22:30:50;7.90;99.90
21489;DHT22;10906;45.194;5.684;2023-12-14T22:33:34;8.00;99.90
21489;DHT22;10906;45.194;5.684;2023-12-14T22:36:18;8.00;99.90
21489;DHT22;10906;45.194;5.684;2023-12-14T22:39:02;8.00;99.90
21489;DHT22;10906;45.194;5.684;2023-12-14T22:41:48;8.00;99.90
21489;DHT22;10906;45.194;5.684;2023-12-14T22:44:32;8.00;99.90
21489;DHT22;10906;45.194;5.684;2023-12-14T22:47:16;8.00;99.90
21489;DHT22;10906;45.194;5.684;2023-12-14T22:50:00;8.00;99.90
21489;DHT22;10906;45.194;5.684;2023-12-14T22:52:45;7.90;99.90
21489;DHT22;10906;45.194;5.684;2023-12-14T22:55:29;8.00;99.90
21489;DHT22;10906;45.194;5.684;2023-12-14T22:58:13;8.00;99.90
